PWSweather.com
Personal Weather Stations
Station Observations
KWAGIGHA17
Gig Harbor, WA 98332

Gig Harbor, WA 98332

Lat: 47.35323, Lon: -122.58817

Elevation: 318

Station Type: Davis VP2 Wireless

http://www.gigharborweather.com

Latest ConditionsUpdated 6:20:07 AM PDT Monday, May 25, 2015
Currently Today's Max Today's Min Today's Average
Temperature 51.5°F10.8°C 51.7°F10.9°C 50.1°F10.1°C 51.1°F10.6°C
Dew Point 47.8°F8.8°C 47.8°F8.8°C 45.6°F7.6°C 47.2°F8.4°C
Winds Calm Calm 2.1 mph SSW3.4 kmh SSW - 0.3 mph 0.5 kmh
Wind Gusts 1.0 mph1.6 kmh 4.0 mph6.4 kmh - -
Humidity 87% 88% 83% 87%
Pressure 29.99 in1015.6 mb 30.01 in1016.3 mb 29.98 in1015.2 mb -
Hour Temp Dew Point Humidity Winds Wind Gusts Pressure Precip Precip Rate Daily Precip Total
06:20 AM 51.5°F10.8°C 47.8°F8.8°C 87% Calm Calm 1.0 mph1.6 kmh 29.99 in1015.6 mb - 0.00 in0.0 mm 0.00 in0.0 mm
06:10 AM 51.5°F10.8°C 47.8°F8.8°C 87% 0.7 mph SSW1.1 kmh SSW 4.0 mph6.4 kmh 29.98 in1015.2 mb - 0.00 in0.0 mm 0.00 in0.0 mm
06:00 AM 51.4°F10.8°C 47.7°F8.7°C 87% 2.1 mph SSW3.4 kmh SSW 4.0 mph6.4 kmh 29.99 in1015.6 mb - 0.00 in0.0 mm 0.00 in0.0 mm
05:50 AM 51.4°F10.8°C 47.7°F8.7°C 87% 0.7 mph SSW1.1 kmh SSW -- 29.99 in1015.6 mb - 0.00 in0.0 mm 0.00 in0.0 mm
05:40 AM 51.4°F10.8°C 47.7°F8.7°C 87% 0.3 mph SSW0.5 kmh SSW 3.0 mph4.8 kmh 29.99 in1015.6 mb - 0.00 in0.0 mm 0.00 in0.0 mm
05:30 AM 51.3°F10.7°C 47.6°F8.7°C 87% 0.7 mph SSW1.1 kmh SSW 3.0 mph4.8 kmh 29.99 in1015.6 mb - 0.00 in0.0 mm 0.00 in0.0 mm
05:20 AM 51.3°F10.7°C 47.6°F8.7°C 87% Calm Calm 1.0 mph1.6 kmh 30.00 in1015.9 mb - 0.00 in0.0 mm 0.00 in0.0 mm
05:10 AM 51.3°F10.7°C 47.6°F8.7°C 87% 0.1 mph SSW0.2 kmh SSW 1.0 mph1.6 kmh 29.99 in1015.6 mb - 0.00 in0.0 mm 0.00 in0.0 mm
05:00 AM 51.3°F10.7°C 47.6°F8.7°C 87% Calm Calm -- 30.00 in1015.9 mb - 0.00 in0.0 mm 0.00 in0.0 mm
04:50 AM 51.3°F10.7°C 47.6°F8.7°C 87% Calm Calm -- 30.00 in1015.9 mb - 0.00 in0.0 mm 0.00 in0.0 mm
04:40 AM 51.3°F10.7°C 47.6°F8.7°C 87% Calm Calm -- 30.00 in1015.9 mb - 0.00 in0.0 mm 0.00 in0.0 mm
04:30 AM 51.3°F10.7°C 47.6°F8.7°C 87% 0.5 mph SSW0.8 kmh SSW 4.0 mph6.4 kmh 29.99 in1015.6 mb - 0.00 in0.0 mm 0.00 in0.0 mm
04:20 AM 51.3°F10.7°C 47.6°F8.7°C 87% Calm Calm -- 29.99 in1015.6 mb - 0.00 in0.0 mm 0.00 in0.0 mm
04:10 AM 51.3°F10.7°C 47.6°F8.7°C 87% 0.5 mph SSW0.8 kmh SSW 2.0 mph3.2 kmh 29.99 in1015.6 mb - 0.00 in0.0 mm 0.00 in0.0 mm
04:00 AM 51.3°F10.7°C 47.5°F8.6°C 87% 0.9 mph SW1.4 kmh SW 2.0 mph3.2 kmh 29.99 in1015.6 mb - 0.00 in0.0 mm 0.00 in0.0 mm
03:50 AM 51.3°F10.7°C 47.5°F8.6°C 87% Calm Calm 1.0 mph1.6 kmh 29.98 in1015.2 mb - 0.00 in0.0 mm 0.00 in0.0 mm
03:40 AM 51.2°F10.7°C 47.8°F8.8°C 88% Calm Calm -- 29.99 in1015.6 mb - 0.00 in0.0 mm 0.00 in0.0 mm
03:30 AM 51.2°F10.7°C 47.8°F8.8°C 88% 0.4 mph S0.6 kmh S 2.0 mph3.2 kmh 29.99 in1015.6 mb - 0.00 in0.0 mm 0.00 in0.0 mm
03:20 AM 51.1°F10.6°C 47.7°F8.7°C 88% 0.3 mph S0.5 kmh S 3.0 mph4.8 kmh 29.99 in1015.6 mb - 0.00 in0.0 mm 0.00 in0.0 mm
03:10 AM 51.1°F10.6°C 47.7°F8.7°C 88% Calm Calm -- 29.99 in1015.6 mb - 0.00 in0.0 mm 0.00 in0.0 mm
03:00 AM 51.0°F10.6°C 47.6°F8.7°C 88% Calm Calm -- 29.99 in1015.6 mb - 0.00 in0.0 mm 0.00 in0.0 mm
02:50 AM 51.0°F10.6°C 47.6°F8.7°C 88% Calm Calm 1.0 mph1.6 kmh 29.99 in1015.6 mb - 0.00 in0.0 mm 0.00 in0.0 mm
02:40 AM 51.0°F10.6°C 47.5°F8.6°C 88% 1.7 mph SW2.7 kmh SW 3.0 mph4.8 kmh 29.99 in1015.6 mb - 0.00 in0.0 mm 0.00 in0.0 mm
02:30 AM 50.9°F10.5°C 47.5°F8.6°C 88% 0.6 mph SW1.0 kmh SW -- 29.99 in1015.6 mb - 0.00 in0.0 mm 0.00 in0.0 mm
02:20 AM 50.7°F10.4°C 47.3°F8.5°C 88% 0.5 mph SW0.8 kmh SW 3.0 mph4.8 kmh 30.00 in1015.9 mb - 0.00 in0.0 mm 0.00 in0.0 mm
02:10 AM 50.6°F10.3°C 47.2°F8.4°C 88% Calm Calm -- 30.00 in1015.9 mb - 0.00 in0.0 mm 0.00 in0.0 mm
02:00 AM 50.5°F10.3°C 47.1°F8.4°C 88% Calm Calm -- 30.00 in1015.9 mb - 0.00 in0.0 mm 0.00 in0.0 mm
01:50 AM 50.3°F10.2°C 46.6°F8.1°C 87% Calm Calm -- 30.00 in1015.9 mb - 0.00 in0.0 mm 0.00 in0.0 mm
01:40 AM 50.2°F10.1°C 46.5°F8.1°C 87% Calm Calm -- 30.00 in1015.9 mb - 0.00 in0.0 mm 0.00 in0.0 mm
01:30 AM 50.1°F10.1°C 46.1°F7.8°C 86% 1.1 mph SSW1.8 kmh SSW 4.0 mph6.4 kmh 30.00 in1015.9 mb - 0.00 in0.0 mm 0.00 in0.0 mm
01:20 AM 50.1°F10.1°C 46.1°F7.8°C 86% Calm Calm -- 30.00 in1015.9 mb - 0.00 in0.0 mm 0.00 in0.0 mm
01:10 AM 50.3°F10.2°C 45.6°F7.6°C 84% Calm Calm -- 30.00 in1015.9 mb - 0.00 in0.0 mm 0.00 in0.0 mm
01:00 AM 50.4°F10.2°C 45.8°F7.7°C 84% Calm Calm -- 30.01 in1016.3 mb - 0.00 in0.0 mm 0.00 in0.0 mm
12:50 AM 50.7°F10.4°C 46.0°F7.8°C 84% Calm Calm -- 30.01 in1016.3 mb - 0.00 in0.0 mm 0.00 in0.0 mm
12:40 AM 51.0°F10.6°C 46.0°F7.8°C 83% Calm Calm -- 30.00 in1015.9 mb - 0.00 in0.0 mm 0.00 in0.0 mm
12:30 AM 51.3°F10.7°C 46.6°F8.1°C 84% Calm Calm -- 30.00 in1015.9 mb - 0.00 in0.0 mm 0.00 in0.0 mm
12:20 AM 51.5°F10.8°C 46.5°F8.1°C 83% Calm Calm -- 30.00 in1015.9 mb - 0.00 in0.0 mm 0.00 in0.0 mm
12:10 AM 51.6°F10.9°C 46.6°F8.1°C 83% Calm Calm -- 30.00 in1015.9 mb - 0.00 in0.0 mm 0.00 in0.0 mm
12:00 AM 51.7°F10.9°C 46.7°F8.2°C 83% Calm Calm -- 30.01 in1016.3 mb - 0.00 in0.0 mm 0.00 in0.0 mm